Flight Track Log - Related Links

Times and Time Zones

All times are in EDT time to prevent confusion due to time zone crossing. See the GTX303 flight status page for this flight to view local times or setup timezone preferences in your user account.

Time Position Orientation Groundspeed Altitude Reporting Facility
EDT Latitude Longitude Course Direction KTS MPH feet Rate Location/Type
08:07PM 27.7686 -97.4936 23° Northeast 86 99 500  Level Houston Center
08:07PM 27.7886 -97.4839 23° Northeast 115 132 1,200 932 Climbing Houston Center
08:08PM 27.8239 -97.4792 North 125 144 2,100 857 Climbing Houston Center
08:09PM 27.8333 -97.4783 North 120 138 2,300 787 Climbing Houston Center
08:09PM 27.8614 -97.4764 North 131 151 2,900 774 Climbing Houston Center
08:10PM 27.8706 -97.4758 North 128 147 3,100 787 Climbing Houston Center
08:10PM 27.8969 -97.4739 North 136 157 3,700 774 Climbing Houston Center
08:11PM 27.9089 -97.4717 North 132 152 3,900 787 Climbing Houston Center
08:11PM 27.9367 -97.4706 North 137 158 4,500 774 Climbing Houston Center
08:12PM 27.9478 -97.4686 North 134 154 4,700 800 Climbing Houston Center
08:12PM 27.9719 -97.4681 North 134 154 5,300 774 Climbing Houston Center
08:13PM 27.9856 -97.4653 10° North 134 154 5,500 197 Climbing Houston Center
08:13PM 28.0156 -97.4622 North 147 169 5,500 97 Level Houston Center
08:14PM 28.0342 -97.4600 North 161 185 5,600  Climbing Houston Center
08:15PM 28.0839 -97.4544 North 172 198 5,500 -48 Descending Houston Center
08:16PM 28.1342 -97.4486 North 178 205 5,500 48 Level Houston Center
08:17PM 28.1847 -97.4436 North 178 205 5,600 97 Climbing Houston Center
08:18PM 28.2339 -97.4392 North 177 204 5,700  Climbing Houston Center
08:19PM 28.2839 -97.4358 North 177 204 5,600 -97 Descending Houston Center
08:20PM 28.3356 -97.4300 North 179 206 5,500 -97 Descending Houston Center
08:21PM 28.3917 -97.4244 North 180 207 5,400 -48 Descending Houston Center
08:22PM 28.4414 -97.4189 North 178 205 5,400 48 Level Houston Center
08:23PM 28.4881 -97.4153 North 178 205 5,500 98 Climbing Houston Center
08:24PM 28.5389 -97.4106 North 179 206 5,600  Climbing Houston Center
08:25PM 28.5889 -97.4067 North 179 206 5,500 -48 Descending Houston Center
08:26PM 28.6400 -97.4014 North 181 208 5,500  Level Houston Center
08:27PM 28.6897 -97.3947 North 181 208 5,500 -48 Level Houston Center
08:28PM 28.7497 -97.3878 North 181 208 5,400 -48 Descending Houston Center
08:29PM 28.8000 -97.3839 North 181 208 5,400  Level Houston Center
08:30PM 28.8508 -97.3783 North 181 208 5,400 48 Level Houston Center
08:31PM 28.9022 -97.3736 North 185 213 5,500 48 Climbing Houston Center
08:32PM 28.9500 -97.3692 North 175 201 5,500 48 Level Houston Center
08:33PM 28.9997 -97.3625 North 176 203 5,600 48 Climbing Houston Center
08:35PM 29.0592 -97.3561 North 176 203 5,600 -48 Level Houston Center
08:36PM 29.1108 -97.3492 North 183 211 5,500 -49 Descending Houston Center
08:37PM 29.1600 -97.3411 North 182 209 5,500 -49 Level Houston Center
08:38PM 29.2119 -97.3328 North 183 211 5,400 -48 Descending Houston Center
08:39PM 29.2631 -97.3242 North 183 211 5,400 -48 Level Houston Center
08:40PM 29.3133 -97.3164 North 183 211 5,300 -48 Descending Houston Center
08:41PM 29.3636 -97.3103 North 183 211 5,300 145 Level Houston Center
08:42PM 29.4117 -97.3033 North 177 204 5,600 97 Climbing Houston Center
08:43PM 29.4703 -97.2947 North 177 204 5,500 -48 Descending Houston Center
08:44PM 29.5197 -97.2897 North 177 204 5,500  Level Houston Center
08:45PM 29.5692 -97.2833 North 177 204 5,500 49 Level Houston Center
08:46PM 29.6189 -97.2778 North 177 204 5,600 48 Climbing Houston Center
08:47PM 29.6678 -97.2717 North 177 204 5,600  Level Houston Center
08:48PM 29.7175 -97.2650 North 177 204 5,600  Level Houston Center
08:49PM 29.7664 -97.2592 North 177 204 5,600 -48 Level Houston Center
08:50PM 29.8264 -97.2517 North 178 205 5,500 -98 Descending Houston Center
08:51PM 29.8767 -97.2450 North 178 205 5,400  Descending Houston Center
08:52PM 29.9258 -97.2381 North 178 205 5,500 48 Climbing Houston Center
08:53PM 29.9756 -97.2314 North 178 205 5,500  Level Houston Center
08:54PM 30.0236 -97.2233 North 178 205 5,500  Level Houston Center
08:55PM 30.0719 -97.2156 North 178 205 5,500  Level Houston Center
08:56PM 30.1258 -97.2103 North 176 203 5,500 49 Level Houston Center
08:57PM 30.1744 -97.2031 North 176 203 5,600 48 Climbing Houston Center
08:58PM 30.2225 -97.1961 North 176 203 5,600 -48 Level Houston Center
08:59PM 30.2711 -97.1903 North 176 203 5,500 -49 Descending Houston Center
09:00PM 30.3186 -97.1839 North 175 201 5,500  Level Houston Center
09:01PM 30.3767 -97.1761 North 175 201 5,500 48 Level Houston Center
09:02PM 30.4244 -97.1706 North 174 200 5,600 49 Climbing Houston Center
09:03PM 30.4719 -97.1650 North 174 200 5,600  Level Houston Center
09:04PM 30.5192 -97.1581 North 174 200 5,600 -48 Level Houston Center
09:05PM 30.5678 -97.1522 North 174 200 5,500  Descending Houston Center
09:06PM 30.6164 -97.1456 North 174 200 5,600  Climbing Houston Center
09:07PM 30.6644 -97.1394 North 174 200 5,500 49 Descending Houston Center
09:08PM 30.7219 -97.1308 North 174 200 5,700 146 Climbing Houston Center
09:10PM 30.7697 -97.1244 North 174 200 5,800 -48 Climbing Houston Center
09:11PM 30.8200 -97.1167 North 179 206 5,600 -195 Descending Houston Center
09:12PM 30.8703 -97.1103 North 181 208 5,400  Descending Houston Center
09:13PM 30.9194 -97.1050 North 181 208 5,600 49 Climbing Houston Center
09:14PM 30.9686 -97.0986 North 181 208 5,500  Descending Houston Center
09:15PM 31.0278 -97.0889 North 181 208 5,600  Climbing Houston Center
09:16PM 31.0778 -97.0814 North 181 208 5,500 -49 Descending Houston Center
09:17PM 31.1286 -97.0722 North 181 208 5,500 -49 Level Houston Center
09:18PM 31.1778 -97.0631 North 181 208 5,400  Descending Houston Center
09:19PM 31.2275 -97.0539 North 181 208 5,500 54 Climbing Houston Center
09:20PM 31.2747 -97.0433 11° North 180 207 5,500  Level Fort Worth Center
09:20PM 31.2986 -97.0389 North 182 209 5,500 67 Level Fort Worth Center
09:21PM 31.3467 -97.0297 North 180 207 5,600 48 Climbing Fort Worth Center
09:22PM 31.3964 -97.0219 North 179 206 5,600  Level Fort Worth Center
09:23PM 31.4475 -97.0136 North 181 208 5,600  Level Fort Worth Center
09:24PM 31.4769 -97.0067 11° North 184 212 5,600  Level Fort Worth Center
09:24PM 31.4975 -97.0047 North 182 209 5,600 -62 Level Fort Worth Center
09:25PM 31.5481 -96.9967 North 183 211 5,500  Descending Fort Worth Center
09:26PM 31.6086 -96.9847 10° North 182 209 5,600  Climbing Fort Worth Center
09:27PM 31.6581 -96.9764 North 181 208 5,500 -113 Descending Fort Worth Center
09:28PM 31.6964 -96.9722 North 183 211 5,400 -97 Descending Fort Worth Center
09:28PM 31.7086 -96.9708 North 181 208 5,400 76 Level Fort Worth Center
09:29PM 31.7597 -96.9656 North 181 208 5,500 98 Climbing Fort Worth Center
09:30PM 31.8086 -96.9594 North 178 205 5,600  Climbing Fort Worth Center
09:31PM 31.8583 -96.9544 North 179 206 5,500 -61 Descending Fort Worth Center
09:32PM 31.8981 -96.9500 North 185 213 5,500  Level Fort Worth Center
09:32PM 31.9197 -96.9486 North 183 211 5,500  Level Fort Worth Center
09:33PM 31.9636 -96.9417 North 182 209 5,500  Level Fort Worth Center
09:34PM 32.0139 -96.9369 North 181 208 5,500 49 Level Fort Worth Center
09:35PM 32.0733 -96.9294 North 181 208 5,600 65 Climbing Fort Worth Center
09:36PM 32.0997 -96.9278 North 177 204 5,600 97 Level Fort Worth Center
09:37PM 32.1231 -96.9231 10° North 180 207 5,700 -64 Climbing Fort Worth Center
09:38PM 32.1731 -96.9175 North 180 207 5,500 -97 Descending Fort Worth Center
09:39PM 32.2222 -96.9117 North 180 207 5,500  Level Fort Worth Center
09:40PM 32.2761 -96.9053 North 180 207 5,500  Level Fort Worth Center
09:41PM 32.3297 -96.8978 North 180 207 5,500 -145 Level Fort Worth Center
09:42PM 32.3800 -96.8897 North 181 208 5,200 -387 Descending Fort Worth Center
09:43PM 32.4325 -96.8819 North 191 220 4,700 -488 Descending Fort Worth Center
09:44PM 32.4906 -96.8739 North 193 222 4,200 -439 Descending Fort Worth Center
09:45PM 32.5439 -96.8656 North 192 221 3,800 -339 Descending Fort Worth Center
09:46PM 32.6003 -96.8592 North 192 221 3,500 -145 Descending Fort Worth Center
09:47PM 32.6503 -96.8531 North 183 211 3,500  Level Fort Worth Center
09:48PM 32.6989 -96.8486 North 179 206 3,500  Level Fort Worth Center
09:49PM 32.7525 -96.8472 North 179 206 3,500  Level Fort Worth Center
09:50PM 32.8011 -96.8556 352° North 179 206 3,500 -194 Level Fort Worth Center
09:51PM 32.8517 -96.8553 360° North 183 211 3,100 -726 Descending Fort Worth Center
09:52PM 32.9081 -96.8489 North 187 215 2,000 -732 Descending Fort Worth Center
09:53PM 32.9553 -96.8469 North 173 199 1,600 -293 Descending Fort Worth Center
09:54PM 32.9886 -96.8642 337° Northwest 132 152 1,400 -339 Descending Fort Worth Center
09:55PM 32.9878 -96.8453 93° East 95 109 900 -293 Descending Fort Worth Center
09:56PM 32.9694 -96.8369 159° South 84 97 800 -98 Descending Fort Worth Center
09:58PM 32.9667 -96.8333 140° Southeast  Level FlightAware Approximate

Login

Don't have an account? Register now (free) for customized features, flight alerts, and more!